Aérodrome :
LOGIN :

S'inscrire | Disclaimer

   EN    FR    IT 

 










Légende :    VFR   VFR Marginal   IFR   IFR Intensif   IFR Très Intensif
Visi : 
Plafond : 
>= 8 km
>= 3000ft
5 à 8 km
1000 à 3000 ft
1500m à 5 km
500 à 1000 ft
800 à 1500m
200 à 500 ft
< 800m
< 200 ft
Symboles :   Orages  Brouillard  Fortes neiges  Fortes précipitations  Vent > 20 kt
SIGMETs :   Divers  Orages  Givrage  Turbulence  Onde Orograph.  Cendres Volcan.







- Altitude de l'aérodrome : 290 ft
- Code IATA : LAI
- Voir les cartes d'approche


LFRO - Lannion

DERNIER METAR :
  • 210000Z AUTO 23008KT 9999 BKN004 OVC014 16/16 Q1024

METARs EXPIRÉS :
  • 202330Z AUTO 23008KT 5000 -DZ BR BKN006 OVC011 16/16 Q1024
  • 202300Z AUTO 23009KT 9999 OVC007 16/16 Q1024
  • 202230Z AUTO 23009KT 9999 OVC007 16/15 Q1024
  • 202200Z AUTO 22010KT 9999 OVC008 16/15 Q1024
  • 202130Z AUTO 22010KT 9999 OVC009 16/15 Q1024

TAF AMD TAF LFRO
Valide du 20 à 15h jusqu'au 21 à 12h UTC


201555Z 2015/2112 19013KT 9999 BKN021
PROB30
TEMPO 2015/2021 3000 RA BR OVC005
BECMG 2021/2023 BKN013
PROB30
TEMPO 2021/2107 3000 RA BR OVC003
BECMG 2107/2109 VRB03KT
BECMG 2109/2111 SCT020
Pas de NOTAMs connus pour ce terrain.



MET'MAP, la Météo Aéronautique d'un coup d'oeil ! - Copyright ORBIFLY Décembre 2007 - Disclaimer

ORBIFLY MET'MAP TEAM :

Programmation & Développement : Alexandra Zaïnal
Conception & Développement : Baudouin d'Aumeries
Co-Programmation & Développement : Marc-Olivier Méhu
Soutien technique & logistique : Manuel Goepfert

Contact : metmap@orbifly.com




SOURCES & CREDITS :

   NOAA